sensor_id;sensor_type;location;lat;lon;timestamp;P1;durP1;ratioP1;P2;durP2;ratioP2
58661;SDS011;44432;49.786;22.760;2024-02-04T00:00:23;22.30;;;11.10;;
58661;SDS011;44432;49.786;22.760;2024-02-04T00:03:14;9.70;;;5.60;;
58661;SDS011;44432;49.786;22.760;2024-02-04T00:05:45;10.90;;;6.10;;
58661;SDS011;44432;49.786;22.760;2024-02-04T00:08:15;9.50;;;5.70;;
58661;SDS011;44432;49.786;22.760;2024-02-04T00:10:46;9.30;;;5.50;;
58661;SDS011;44432;49.786;22.760;2024-02-04T00:13:17;11.10;;;6.10;;
58661;SDS011;44432;49.786;22.760;2024-02-04T00:15:48;9.80;;;6.10;;
58661;SDS011;44432;49.786;22.760;2024-02-04T00:18:22;11.00;;;7.00;;
58661;SDS011;44432;49.786;22.760;2024-02-04T00:20:53;8.90;;;6.30;;
58661;SDS011;44432;49.786;22.760;2024-02-04T00:23:23;10.80;;;7.40;;
58661;SDS011;44432;49.786;22.760;2024-02-04T00:25:54;12.90;;;7.10;;
58661;SDS011;44432;49.786;22.760;2024-02-04T00:28:25;15.90;;;9.50;;
58661;SDS011;44432;49.786;22.760;2024-02-04T00:30:56;9.30;;;6.00;;
58661;SDS011;44432;49.786;22.760;2024-02-04T00:33:27;11.70;;;6.90;;
58661;SDS011;44432;49.786;22.760;2024-02-04T00:35:58;13.00;;;6.90;;
58661;SDS011;44432;49.786;22.760;2024-02-04T00:38:28;8.50;;;5.80;;
58661;SDS011;44432;49.786;22.760;2024-02-04T00:40:59;9.40;;;5.40;;
58661;SDS011;44432;49.786;22.760;2024-02-04T00:43:31;8.00;;;5.10;;
58661;SDS011;44432;49.786;22.760;2024-02-04T00:46:01;10.20;;;5.50;;
58661;SDS011;44432;49.786;22.760;2024-02-04T00:48:32;7.30;;;4.70;;
58661;SDS011;44432;49.786;22.760;2024-02-04T00:51:03;6.90;;;4.10;;
58661;SDS011;44432;49.786;22.760;2024-02-04T00:53:34;8.40;;;4.90;;
58661;SDS011;44432;49.786;22.760;2024-02-04T00:56:06;9.00;;;5.20;;
58661;SDS011;44432;49.786;22.760;2024-02-04T00:58:37;8.10;;;4.40;;
58661;SDS011;44432;49.786;22.760;2024-02-04T01:01:07;13.50;;;5.40;;
58661;SDS011;44432;49.786;22.760;2024-02-04T01:03:38;8.10;;;3.90;;
58661;SDS011;44432;49.786;22.760;2024-02-04T01:06:09;6.80;;;4.10;;
58661;SDS011;44432;49.786;22.760;2024-02-04T01:08:40;7.90;;;3.60;;
58661;SDS011;44432;49.786;22.760;2024-02-04T01:11:11;6.20;;;3.60;;
58661;SDS011;44432;49.786;22.760;2024-02-04T01:13:41;6.30;;;4.50;;
58661;SDS011;44432;49.786;22.760;2024-02-04T01:16:12;7.40;;;3.40;;
58661;SDS011;44432;49.786;22.760;2024-02-04T01:18:43;5.40;;;3.80;;
58661;SDS011;44432;49.786;22.760;2024-02-04T01:21:14;6.90;;;4.40;;
58661;SDS011;44432;49.786;22.760;2024-02-04T01:23:44;6.80;;;3.70;;
58661;SDS011;44432;49.786;22.760;2024-02-04T01:26:15;5.40;;;3.40;;
58661;SDS011;44432;49.786;22.760;2024-02-04T01:28:46;7.10;;;3.90;;
58661;SDS011;44432;49.786;22.760;2024-02-04T01:31:17;6.30;;;3.50;;
58661;SDS011;44432;49.786;22.760;2024-02-04T01:33:48;6.60;;;3.30;;
58661;SDS011;44432;49.786;22.760;2024-02-04T01:36:18;5.80;;;3.80;;
58661;SDS011;44432;49.786;22.760;2024-02-04T01:38:49;6.30;;;3.90;;
58661;SDS011;44432;49.786;22.760;2024-02-04T01:41:20;7.00;;;4.40;;
58661;SDS011;44432;49.786;22.760;2024-02-04T01:43:52;7.90;;;4.20;;
58661;SDS011;44432;49.786;22.760;2024-02-04T01:46:23;8.70;;;4.40;;
58661;SDS011;44432;49.786;22.760;2024-02-04T01:48:54;8.20;;;4.30;;
58661;SDS011;44432;49.786;22.760;2024-02-04T01:51:25;6.90;;;4.00;;
58661;SDS011;44432;49.786;22.760;2024-02-04T01:53:56;6.60;;;4.30;;
58661;SDS011;44432;49.786;22.760;2024-02-04T01:56:27;8.40;;;4.20;;
58661;SDS011;44432;49.786;22.760;2024-02-04T01:58:58;6.60;;;3.90;;
58661;SDS011;44432;49.786;22.760;2024-02-04T02:01:30;6.80;;;3.70;;
58661;SDS011;44432;49.786;22.760;2024-02-04T02:06:33;7.10;;;4.00;;
58661;SDS011;44432;49.786;22.760;2024-02-04T02:09:09;5.80;;;3.80;;
58661;SDS011;44432;49.786;22.760;2024-02-04T02:11:41;6.70;;;3.50;;
58661;SDS011;44432;49.786;22.760;2024-02-04T02:14:16;5.60;;;3.10;;
58661;SDS011;44432;49.786;22.760;2024-02-04T02:16:52;6.70;;;3.80;;
58661;SDS011;44432;49.786;22.760;2024-02-04T02:19:31;6.00;;;3.40;;
58661;SDS011;44432;49.786;22.760;2024-02-04T02:22:14;5.50;;;3.20;;
58661;SDS011;44432;49.786;22.760;2024-02-04T02:24:53;6.30;;;4.10;;
58661;SDS011;44432;49.786;22.760;2024-02-04T02:27:26;6.90;;;3.70;;
58661;SDS011;44432;49.786;22.760;2024-02-04T02:29:57;5.00;;;2.90;;
58661;SDS011;44432;49.786;22.760;2024-02-04T02:32:28;7.40;;;3.10;;
58661;SDS011;44432;49.786;22.760;2024-02-04T02:34:59;9.20;;;5.70;;
58661;SDS011;44432;49.786;22.760;2024-02-04T02:37:33;6.40;;;3.20;;
58661;SDS011;44432;49.786;22.760;2024-02-04T02:40:09;4.30;;;2.80;;
58661;SDS011;44432;49.786;22.760;2024-02-04T02:42:48;5.30;;;2.90;;
58661;SDS011;44432;49.786;22.760;2024-02-04T02:45:21;4.10;;;2.60;;
58661;SDS011;44432;49.786;22.760;2024-02-04T02:47:54;5.20;;;2.90;;
58661;SDS011;44432;49.786;22.760;2024-02-04T02:50:25;5.00;;;2.80;;
58661;SDS011;44432;49.786;22.760;2024-02-04T02:52:56;4.60;;;2.20;;
58661;SDS011;44432;49.786;22.760;2024-02-04T02:55:27;4.50;;;2.40;;
58661;SDS011;44432;49.786;22.760;2024-02-04T02:57:58;4.60;;;2.80;;
58661;SDS011;44432;49.786;22.760;2024-02-04T03:00:29;5.00;;;2.90;;
58661;SDS011;44432;49.786;22.760;2024-02-04T03:02:59;7.20;;;3.00;;
58661;SDS011;44432;49.786;22.760;2024-02-04T03:05:30;4.00;;;2.40;;
58661;SDS011;44432;49.786;22.760;2024-02-04T03:08:01;3.80;;;2.20;;
58661;SDS011;44432;49.786;22.760;2024-02-04T03:10:32;4.00;;;2.40;;
58661;SDS011;44432;49.786;22.760;2024-02-04T03:13:03;4.70;;;2.70;;
58661;SDS011;44432;49.786;22.760;2024-02-04T03:15:34;4.40;;;2.20;;
58661;SDS011;44432;49.786;22.760;2024-02-04T03:18:05;2.90;;;1.90;;
58661;SDS011;44432;49.786;22.760;2024-02-04T03:20:36;2.90;;;2.10;;
58661;SDS011;44432;49.786;22.760;2024-02-04T03:23:07;3.30;;;2.00;;
58661;SDS011;44432;49.786;22.760;2024-02-04T03:25:37;3.30;;;2.00;;
58661;SDS011;44432;49.786;22.760;2024-02-04T03:28:08;3.90;;;2.20;;
58661;SDS011;44432;49.786;22.760;2024-02-04T03:30:39;3.30;;;1.90;;
58661;SDS011;44432;49.786;22.760;2024-02-04T03:33:10;2.90;;;1.80;;
58661;SDS011;44432;49.786;22.760;2024-02-04T03:35:40;4.30;;;2.20;;
58661;SDS011;44432;49.786;22.760;2024-02-04T03:38:11;4.10;;;2.10;;
58661;SDS011;44432;49.786;22.760;2024-02-04T03:40:42;3.30;;;2.20;;
58661;SDS011;44432;49.786;22.760;2024-02-04T03:43:13;4.00;;;2.30;;
58661;SDS011;44432;49.786;22.760;2024-02-04T03:45:44;3.70;;;2.40;;
58661;SDS011;44432;49.786;22.760;2024-02-04T03:48:15;4.30;;;2.10;;
58661;SDS011;44432;49.786;22.760;2024-02-04T03:50:45;3.90;;;2.30;;
58661;SDS011;44432;49.786;22.760;2024-02-04T03:53:16;3.90;;;2.20;;
58661;SDS011;44432;49.786;22.760;2024-02-04T03:55:50;4.40;;;2.40;;
58661;SDS011;44432;49.786;22.760;2024-02-04T03:58:22;2.80;;;1.80;;
58661;SDS011;44432;49.786;22.760;2024-02-04T04:00:57;5.10;;;2.20;;
58661;SDS011;44432;49.786;22.760;2024-02-04T04:03:28;3.80;;;2.20;;
58661;SDS011;44432;49.786;22.760;2024-02-04T04:05:59;4.10;;;2.10;;
58661;SDS011;44432;49.786;22.760;2024-02-04T04:08:29;3.00;;;2.40;;
58661;SDS011;44432;49.786;22.760;2024-02-04T04:11:00;2.80;;;1.50;;
58661;SDS011;44432;49.786;22.760;2024-02-04T04:13:31;4.80;;;2.20;;
58661;SDS011;44432;49.786;22.760;2024-02-04T04:16:03;5.10;;;2.00;;
58661;SDS011;44432;49.786;22.760;2024-02-04T04:18:34;3.00;;;1.60;;
58661;SDS011;44432;49.786;22.760;2024-02-04T04:21:05;3.10;;;1.60;;
58661;SDS011;44432;49.786;22.760;2024-02-04T04:23:36;3.20;;;1.70;;
58661;SDS011;44432;49.786;22.760;2024-02-04T04:26:07;2.90;;;1.80;;
58661;SDS011;44432;49.786;22.760;2024-02-04T04:28:37;4.50;;;2.10;;
58661;SDS011;44432;49.786;22.760;2024-02-04T04:31:08;3.50;;;1.90;;
58661;SDS011;44432;49.786;22.760;2024-02-04T04:33:39;4.10;;;1.80;;
58661;SDS011;44432;49.786;22.760;2024-02-04T04:36:10;5.30;;;2.20;;
58661;SDS011;44432;49.786;22.760;2024-02-04T04:38:41;3.00;;;1.70;;
58661;SDS011;44432;49.786;22.760;2024-02-04T04:41:11;4.40;;;1.90;;
58661;SDS011;44432;49.786;22.760;2024-02-04T04:43:42;3.30;;;2.20;;
58661;SDS011;44432;49.786;22.760;2024-02-04T04:46:13;4.30;;;2.00;;
58661;SDS011;44432;49.786;22.760;2024-02-04T04:48:44;4.00;;;1.80;;
58661;SDS011;44432;49.786;22.760;2024-02-04T04:51:15;4.60;;;2.10;;
58661;SDS011;44432;49.786;22.760;2024-02-04T04:53:45;3.90;;;1.80;;
58661;SDS011;44432;49.786;22.760;2024-02-04T04:56:16;3.80;;;2.10;;
58661;SDS011;44432;49.786;22.760;2024-02-04T04:58:47;3.80;;;1.90;;
58661;SDS011;44432;49.786;22.760;2024-02-04T05:01:18;3.80;;;2.00;;
58661;SDS011;44432;49.786;22.760;2024-02-04T05:03:49;4.20;;;2.10;;
58661;SDS011;44432;49.786;22.760;2024-02-04T05:06:20;3.60;;;1.60;;
58661;SDS011;44432;49.786;22.760;2024-02-04T05:08:50;2.70;;;1.30;;
58661;SDS011;44432;49.786;22.760;2024-02-04T05:11:21;3.10;;;1.40;;
58661;SDS011;44432;49.786;22.760;2024-02-04T05:13:52;2.80;;;1.40;;
58661;SDS011;44432;49.786;22.760;2024-02-04T05:16:23;5.20;;;1.60;;
58661;SDS011;44432;49.786;22.760;2024-02-04T05:18:54;3.60;;;1.40;;
58661;SDS011;44432;49.786;22.760;2024-02-04T05:21:24;4.90;;;1.40;;
58661;SDS011;44432;49.786;22.760;2024-02-04T05:23:55;3.60;;;1.50;;
58661;SDS011;44432;49.786;22.760;2024-02-04T05:26:26;4.30;;;1.60;;
58661;SDS011;44432;49.786;22.760;2024-02-04T05:28:57;3.50;;;1.60;;
58661;SDS011;44432;49.786;22.760;2024-02-04T05:31:31;4.90;;;1.70;;
58661;SDS011;44432;49.786;22.760;2024-02-04T05:34:06;3.70;;;1.60;;
58661;SDS011;44432;49.786;22.760;2024-02-04T05:36:37;5.40;;;1.90;;
58661;SDS011;44432;49.786;22.760;2024-02-04T05:39:12;5.60;;;2.30;;
58661;SDS011;44432;49.786;22.760;2024-02-04T05:41:44;6.00;;;2.90;;
58661;SDS011;44432;49.786;22.760;2024-02-04T05:44:15;4.10;;;2.10;;
58661;SDS011;44432;49.786;22.760;2024-02-04T05:46:45;4.80;;;1.40;;
58661;SDS011;44432;49.786;22.760;2024-02-04T05:49:16;2.80;;;1.50;;
58661;SDS011;44432;49.786;22.760;2024-02-04T05:51:47;4.40;;;1.50;;
58661;SDS011;44432;49.786;22.760;2024-02-04T05:54:17;2.20;;;1.20;;
58661;SDS011;44432;49.786;22.760;2024-02-04T05:56:48;3.40;;;1.50;;
58661;SDS011;44432;49.786;22.760;2024-02-04T05:59:19;3.70;;;1.30;;
58661;SDS011;44432;49.786;22.760;2024-02-04T06:01:50;3.80;;;1.20;;
58661;SDS011;44432;49.786;22.760;2024-02-04T06:04:20;2.80;;;1.00;;
58661;SDS011;44432;49.786;22.760;2024-02-04T06:06:51;2.60;;;1.20;;
58661;SDS011;44432;49.786;22.760;2024-02-04T06:09:22;4.30;;;1.70;;
58661;SDS011;44432;49.786;22.760;2024-02-04T06:11:52;3.50;;;1.50;;
58661;SDS011;44432;49.786;22.760;2024-02-04T06:14:23;9.80;;;5.00;;
58661;SDS011;44432;49.786;22.760;2024-02-04T06:16:54;3.10;;;1.60;;
58661;SDS011;44432;49.786;22.760;2024-02-04T06:19:25;5.00;;;1.40;;
58661;SDS011;44432;49.786;22.760;2024-02-04T06:21:55;3.30;;;1.50;;
58661;SDS011;44432;49.786;22.760;2024-02-04T06:24:26;2.60;;;1.20;;
58661;SDS011;44432;49.786;22.760;2024-02-04T06:26:57;4.00;;;1.40;;
58661;SDS011;44432;49.786;22.760;2024-02-04T06:29:28;4.80;;;2.00;;
58661;SDS011;44432;49.786;22.760;2024-02-04T06:31:59;4.40;;;1.50;;
58661;SDS011;44432;49.786;22.760;2024-02-04T06:34:30;6.00;;;2.20;;
58661;SDS011;44432;49.786;22.760;2024-02-04T06:37:01;4.70;;;2.00;;
58661;SDS011;44432;49.786;22.760;2024-02-04T06:39:32;3.80;;;1.30;;
58661;SDS011;44432;49.786;22.760;2024-02-04T06:42:03;4.70;;;1.40;;
58661;SDS011;44432;49.786;22.760;2024-02-04T06:44:34;3.10;;;1.30;;
58661;SDS011;44432;49.786;22.760;2024-02-04T06:47:05;3.30;;;1.40;;
58661;SDS011;44432;49.786;22.760;2024-02-04T06:49:37;2.80;;;1.30;;
58661;SDS011;44432;49.786;22.760;2024-02-04T06:52:07;2.90;;;1.00;;
58661;SDS011;44432;49.786;22.760;2024-02-04T06:54:38;1.80;;;1.10;;
58661;SDS011;44432;49.786;22.760;2024-02-04T06:57:09;3.30;;;1.20;;
58661;SDS011;44432;49.786;22.760;2024-02-04T06:59:39;3.60;;;1.50;;
58661;SDS011;44432;49.786;22.760;2024-02-04T07:02:10;6.70;;;2.00;;
58661;SDS011;44432;49.786;22.760;2024-02-04T07:04:41;3.70;;;1.70;;
58661;SDS011;44432;49.786;22.760;2024-02-04T07:07:12;2.80;;;1.50;;
58661;SDS011;44432;49.786;22.760;2024-02-04T07:09:43;5.20;;;1.90;;
58661;SDS011;44432;49.786;22.760;2024-02-04T07:12:13;6.60;;;2.30;;
58661;SDS011;44432;49.786;22.760;2024-02-04T07:14:44;8.00;;;2.80;;
58661;SDS011;44432;49.786;22.760;2024-02-04T07:17:15;4.20;;;1.50;;
58661;SDS011;44432;49.786;22.760;2024-02-04T07:19:46;10.50;;;4.50;;
58661;SDS011;44432;49.786;22.760;2024-02-04T07:22:17;6.50;;;2.30;;
58661;SDS011;44432;49.786;22.760;2024-02-04T07:24:48;4.50;;;2.00;;
58661;SDS011;44432;49.786;22.760;2024-02-04T07:27:18;3.80;;;1.70;;
58661;SDS011;44432;49.786;22.760;2024-02-04T07:29:49;6.20;;;2.70;;
58661;SDS011;44432;49.786;22.760;2024-02-04T07:32:22;6.70;;;3.20;;
58661;SDS011;44432;49.786;22.760;2024-02-04T07:34:53;5.50;;;2.30;;
58661;SDS011;44432;49.786;22.760;2024-02-04T07:37:24;3.60;;;1.60;;
58661;SDS011;44432;49.786;22.760;2024-02-04T07:39:54;4.00;;;1.30;;
58661;SDS011;44432;49.786;22.760;2024-02-04T07:42:25;3.40;;;1.50;;
58661;SDS011;44432;49.786;22.760;2024-02-04T07:44:56;4.50;;;1.60;;
58661;SDS011;44432;49.786;22.760;2024-02-04T07:47:27;3.20;;;1.80;;
58661;SDS011;44432;49.786;22.760;2024-02-04T07:49:58;4.30;;;1.40;;
58661;SDS011;44432;49.786;22.760;2024-02-04T07:52:29;2.90;;;1.40;;
58661;SDS011;44432;49.786;22.760;2024-02-04T07:54:59;1.80;;;1.00;;
58661;SDS011;44432;49.786;22.760;2024-02-04T07:57:30;2.80;;;1.40;;
58661;SDS011;44432;49.786;22.760;2024-02-04T08:00:01;2.30;;;1.20;;
58661;SDS011;44432;49.786;22.760;2024-02-04T08:02:33;6.30;;;2.80;;
58661;SDS011;44432;49.786;22.760;2024-02-04T08:05:04;4.50;;;1.40;;
58661;SDS011;44432;49.786;22.760;2024-02-04T08:07:35;3.80;;;1.80;;
58661;SDS011;44432;49.786;22.760;2024-02-04T08:10:07;4.10;;;1.40;;
58661;SDS011;44432;49.786;22.760;2024-02-04T08:12:38;3.80;;;1.30;;
58661;SDS011;44432;49.786;22.760;2024-02-04T08:15:10;3.40;;;1.00;;
58661;SDS011;44432;49.786;22.760;2024-02-04T08:17:41;2.20;;;1.20;;
58661;SDS011;44432;49.786;22.760;2024-02-04T08:20:12;3.40;;;1.10;;
58661;SDS011;44432;49.786;22.760;2024-02-04T08:22:42;4.40;;;1.40;;
58661;SDS011;44432;49.786;22.760;2024-02-04T08:25:13;5.20;;;1.80;;
58661;SDS011;44432;49.786;22.760;2024-02-04T08:27:44;5.00;;;1.60;;
58661;SDS011;44432;49.786;22.760;2024-02-04T08:30:16;5.00;;;2.20;;
58661;SDS011;44432;49.786;22.760;2024-02-04T08:32:46;4.10;;;2.10;;
58661;SDS011;44432;49.786;22.760;2024-02-04T08:35:17;6.40;;;1.50;;
58661;SDS011;44432;49.786;22.760;2024-02-04T08:37:48;5.30;;;1.70;;
58661;SDS011;44432;49.786;22.760;2024-02-04T08:40:19;4.50;;;1.70;;
58661;SDS011;44432;49.786;22.760;2024-02-04T08:42:49;6.60;;;2.70;;
58661;SDS011;44432;49.786;22.760;2024-02-04T08:45:20;4.40;;;2.00;;
58661;SDS011;44432;49.786;22.760;2024-02-04T08:47:51;7.40;;;2.20;;
58661;SDS011;44432;49.786;22.760;2024-02-04T08:50:22;5.40;;;2.30;;
58661;SDS011;44432;49.786;22.760;2024-02-04T08:52:53;5.20;;;2.40;;
58661;SDS011;44432;49.786;22.760;2024-02-04T08:55:24;6.70;;;2.60;;
58661;SDS011;44432;49.786;22.760;2024-02-04T08:57:55;6.10;;;3.10;;
58661;SDS011;44432;49.786;22.760;2024-02-04T09:00:25;8.40;;;4.40;;
58661;SDS011;44432;49.786;22.760;2024-02-04T09:02:56;4.90;;;1.90;;
58661;SDS011;44432;49.786;22.760;2024-02-04T09:05:27;17.90;;;11.00;;
58661;SDS011;44432;49.786;22.760;2024-02-04T09:07:58;7.00;;;3.60;;
58661;SDS011;44432;49.786;22.760;2024-02-04T09:10:29;10.20;;;6.10;;
58661;SDS011;44432;49.786;22.760;2024-02-04T09:13:00;6.20;;;3.10;;
58661;SDS011;44432;49.786;22.760;2024-02-04T09:15:31;7.80;;;4.00;;
58661;SDS011;44432;49.786;22.760;2024-02-04T09:18:01;9.70;;;5.20;;
58661;SDS011;44432;49.786;22.760;2024-02-04T09:20:33;7.20;;;2.80;;
58661;SDS011;44432;49.786;22.760;2024-02-04T09:23:04;7.00;;;2.30;;
58661;SDS011;44432;49.786;22.760;2024-02-04T09:25:35;6.00;;;2.20;;
58661;SDS011;44432;49.786;22.760;2024-02-04T09:28:06;6.70;;;1.90;;
58661;SDS011;44432;49.786;22.760;2024-02-04T09:30:37;8.40;;;3.00;;
58661;SDS011;44432;49.786;22.760;2024-02-04T09:33:08;17.10;;;7.70;;
58661;SDS011;44432;49.786;22.760;2024-02-04T09:35:39;9.50;;;4.00;;
58661;SDS011;44432;49.786;22.760;2024-02-04T09:38:09;10.30;;;4.80;;
58661;SDS011;44432;49.786;22.760;2024-02-04T09:40:40;5.20;;;2.80;;
58661;SDS011;44432;49.786;22.760;2024-02-04T09:43:11;5.30;;;2.30;;
58661;SDS011;44432;49.786;22.760;2024-02-04T09:45:42;4.70;;;2.10;;
58661;SDS011;44432;49.786;22.760;2024-02-04T09:48:13;4.40;;;1.70;;
58661;SDS011;44432;49.786;22.760;2024-02-04T09:50:46;5.50;;;2.00;;
58661;SDS011;44432;49.786;22.760;2024-02-04T09:53:18;5.40;;;1.70;;
58661;SDS011;44432;49.786;22.760;2024-02-04T09:55:56;6.80;;;2.30;;
58661;SDS011;44432;49.786;22.760;2024-02-04T09:58:27;4.30;;;1.90;;
58661;SDS011;44432;49.786;22.760;2024-02-04T10:00:58;8.50;;;2.70;;
58661;SDS011;44432;49.786;22.760;2024-02-04T10:03:31;6.30;;;2.30;;
58661;SDS011;44432;49.786;22.760;2024-02-04T10:06:02;4.30;;;1.80;;
58661;SDS011;44432;49.786;22.760;2024-02-04T10:08:34;4.90;;;2.00;;
58661;SDS011;44432;49.786;22.760;2024-02-04T10:11:07;6.20;;;1.60;;
58661;SDS011;44432;49.786;22.760;2024-02-04T10:13:43;7.20;;;1.90;;
58661;SDS011;44432;49.786;22.760;2024-02-04T10:16:15;5.60;;;2.90;;
58661;SDS011;44432;49.786;22.760;2024-02-04T10:18:46;5.20;;;1.90;;
58661;SDS011;44432;49.786;22.760;2024-02-04T10:21:18;4.80;;;1.90;;
58661;SDS011;44432;49.786;22.760;2024-02-04T10:23:51;9.90;;;2.90;;
58661;SDS011;44432;49.786;22.760;2024-02-04T10:26:23;8.20;;;4.40;;
58661;SDS011;44432;49.786;22.760;2024-02-04T10:28:59;9.30;;;3.30;;
58661;SDS011;44432;49.786;22.760;2024-02-04T10:31:30;6.00;;;2.50;;
58661;SDS011;44432;49.786;22.760;2024-02-04T10:34:02;7.60;;;2.50;;
58661;SDS011;44432;49.786;22.760;2024-02-04T10:36:34;7.40;;;3.40;;
58661;SDS011;44432;49.786;22.760;2024-02-04T10:39:05;5.60;;;2.00;;
58661;SDS011;44432;49.786;22.760;2024-02-04T10:41:37;5.10;;;1.80;;
58661;SDS011;44432;49.786;22.760;2024-02-04T10:44:13;4.70;;;1.70;;
58661;SDS011;44432;49.786;22.760;2024-02-04T10:49:17;6.70;;;3.20;;
58661;SDS011;44432;49.786;22.760;2024-02-04T10:51:48;9.20;;;3.80;;
58661;SDS011;44432;49.786;22.760;2024-02-04T10:54:23;7.60;;;3.00;;
58661;SDS011;44432;49.786;22.760;2024-02-04T10:57:00;5.20;;;2.10;;
58661;SDS011;44432;49.786;22.760;2024-02-04T10:59:34;5.20;;;2.40;;
58661;SDS011;44432;49.786;22.760;2024-02-04T11:02:06;5.10;;;2.20;;
58661;SDS011;44432;49.786;22.760;2024-02-04T11:04:38;5.50;;;2.20;;
58661;SDS011;44432;49.786;22.760;2024-02-04T11:07:11;9.00;;;3.50;;
58661;SDS011;44432;49.786;22.760;2024-02-04T11:09:44;8.70;;;3.60;;
58661;SDS011;44432;49.786;22.760;2024-02-04T11:12:18;7.50;;;3.00;;
58661;SDS011;44432;49.786;22.760;2024-02-04T11:14:52;17.60;;;7.30;;
58661;SDS011;44432;49.786;22.760;2024-02-04T11:17:45;8.10;;;3.70;;
58661;SDS011;44432;49.786;22.760;2024-02-04T11:20:34;8.50;;;4.50;;
58661;SDS011;44432;49.786;22.760;2024-02-04T11:23:35;7.60;;;3.40;;
58661;SDS011;44432;49.786;22.760;2024-02-04T11:26:11;6.50;;;2.40;;
58661;SDS011;44432;49.786;22.760;2024-02-04T11:28:45;8.70;;;3.60;;
58661;SDS011;44432;49.786;22.760;2024-02-04T11:31:16;7.20;;;3.70;;
58661;SDS011;44432;49.786;22.760;2024-02-04T11:33:49;8.30;;;2.80;;
58661;SDS011;44432;49.786;22.760;2024-02-04T11:38:53;4.30;;;2.10;;
58661;SDS011;44432;49.786;22.760;2024-02-04T11:41:24;6.40;;;2.00;;
58661;SDS011;44432;49.786;22.760;2024-02-04T11:43:56;9.60;;;3.00;;
58661;SDS011;44432;49.786;22.760;2024-02-04T11:46:32;5.80;;;2.00;;
58661;SDS011;44432;49.786;22.760;2024-02-04T11:49:03;5.80;;;2.10;;
58661;SDS011;44432;49.786;22.760;2024-02-04T11:51:46;6.80;;;2.90;;
58661;SDS011;44432;49.786;22.760;2024-02-04T11:54:20;10.60;;;4.30;;
58661;SDS011;44432;49.786;22.760;2024-02-04T11:56:51;10.00;;;4.90;;
58661;SDS011;44432;49.786;22.760;2024-02-04T11:59:24;7.80;;;4.20;;
58661;SDS011;44432;49.786;22.760;2024-02-04T12:01:55;9.20;;;3.70;;
58661;SDS011;44432;49.786;22.760;2024-02-04T12:04:29;4.20;;;2.10;;
58661;SDS011;44432;49.786;22.760;2024-02-04T12:09:30;6.00;;;2.00;;
58661;SDS011;44432;49.786;22.760;2024-02-04T12:12:01;2.30;;;1.20;;
58661;SDS011;44432;49.786;22.760;2024-02-04T12:14:33;5.80;;;2.00;;
58661;SDS011;44432;49.786;22.760;2024-02-04T12:17:07;4.70;;;2.90;;
